createdAt,value
2022-08-02T00:02:46.357Z,1.70
2022-08-02T00:05:32.175Z,1.88
2022-08-02T00:08:17.963Z,1.95
2022-08-02T00:11:03.514Z,1.95
2022-08-02T00:13:49.022Z,2.17
2022-08-02T00:16:37.924Z,2.17
2022-08-02T00:19:24.207Z,1.77
2022-08-02T00:22:09.939Z,2.00
2022-08-02T00:24:55.781Z,2.53
2022-08-02T00:27:41.406Z,1.90
2022-08-02T00:30:26.959Z,1.92
2022-08-02T00:33:12.362Z,2.33
2022-08-02T00:35:57.920Z,2.55
2022-08-02T00:38:44.351Z,2.17
2022-08-02T00:41:29.599Z,2.20
2022-08-02T00:44:19.583Z,1.90
2022-08-02T00:47:05.533Z,2.45
2022-08-02T00:49:51.051Z,2.38
2022-08-02T00:52:36.518Z,2.30
2022-08-02T00:55:30.895Z,2.17
2022-08-02T00:58:17.538Z,2.10
2022-08-02T01:01:03.618Z,2.45
2022-08-02T01:03:49.235Z,2.33
2022-08-02T01:06:37.723Z,2.58
2022-08-02T01:09:23.093Z,2.20
2022-08-02T01:12:09.368Z,2.10
2022-08-02T01:15:00.463Z,2.30
2022-08-02T01:18:07.256Z,2.28
2022-08-02T01:21:12.379Z,2.50
2022-08-02T01:24:24.212Z,2.55
2022-08-02T01:27:29.322Z,2.42
2022-08-02T01:30:16.480Z,2.85
2022-08-02T01:33:04.805Z,2.00
2022-08-02T01:35:55.053Z,2.00
2022-08-02T01:38:44.826Z,2.08
2022-08-02T01:41:32.437Z,2.60
2022-08-02T01:44:27.585Z,2.58
2022-08-02T01:47:21.806Z,2.35
2022-08-02T01:50:11.502Z,2.03
2022-08-02T01:53:00.169Z,2.53
2022-08-02T01:55:58.372Z,2.05
2022-08-02T01:58:46.565Z,2.22
2022-08-02T02:01:34.966Z,2.28
2022-08-02T02:04:22.146Z,2.13
2022-08-02T02:07:08.545Z,1.90
2022-08-02T02:09:56.144Z,2.25
2022-08-02T02:12:44.382Z,2.10
2022-08-02T02:15:31.714Z,2.08
2022-08-02T02:18:29.509Z,2.00
2022-08-02T02:21:15.057Z,2.35
2022-08-02T02:24:00.817Z,2.03
2022-08-02T02:26:52.396Z,2.13
2022-08-02T02:29:43.831Z,2.03
2022-08-02T02:32:30.775Z,2.47
2022-08-02T02:35:18.097Z,2.10
2022-08-02T02:38:09.573Z,2.30
2022-08-02T02:40:58.682Z,2.70
2022-08-02T02:43:46.215Z,2.60
2022-08-02T02:46:32.905Z,2.30
2022-08-02T02:49:20.322Z,2.00
2022-08-02T02:52:06.591Z,2.33
2022-08-02T02:54:53.660Z,2.08
2022-08-02T02:57:40.527Z,2.55
2022-08-02T03:00:45.288Z,2.30
2022-08-02T03:03:32.202Z,2.25
2022-08-02T03:06:18.926Z,2.50
2022-08-02T03:09:05.324Z,2.58
2022-08-02T03:11:51.450Z,2.80
2022-08-02T03:14:43.933Z,2.88
2022-08-02T03:17:55.841Z,2.65
2022-08-02T03:20:41.401Z,2.75
2022-08-02T03:23:26.884Z,2.90
2022-08-02T03:26:12.535Z,3.78
2022-08-02T03:28:57.613Z,2.38
2022-08-02T03:31:45.583Z,2.65
2022-08-02T03:34:31.753Z,2.45
2022-08-02T03:37:17.981Z,1.92
2022-08-02T03:40:07.610Z,2.50
2022-08-02T03:42:54.509Z,2.75
2022-08-02T03:45:43.898Z,2.53
2022-08-02T03:48:35.176Z,2.70
2022-08-02T03:51:21.311Z,2.90
2022-08-02T03:54:07.054Z,2.35
2022-08-02T03:56:52.971Z,2.85
2022-08-02T03:59:45.998Z,2.92
2022-08-02T04:02:31.259Z,2.50
2022-08-02T04:05:17.284Z,2.90
2022-08-02T04:08:33.366Z,2.35
2022-08-02T04:11:26.936Z,3.20
2022-08-02T04:14:12.554Z,3.22
2022-08-02T04:17:04.703Z,3.25
2022-08-02T04:19:55.124Z,3.27
2022-08-02T04:23:01.842Z,3.88
2022-08-02T04:25:47.422Z,3.38
2022-08-02T04:28:37.665Z,3.00
2022-08-02T04:31:23.434Z,3.25
2022-08-02T04:34:14.509Z,4.55
2022-08-02T04:37:01.659Z,3.60
2022-08-02T04:39:47.129Z,4.40
2022-08-02T04:42:32.628Z,4.95
2022-08-02T04:45:19.266Z,6.32
2022-08-02T04:48:06.048Z,5.20
2022-08-02T04:50:52.254Z,5.45
2022-08-02T04:53:38.085Z,6.10
2022-08-02T04:56:23.550Z,6.70
2022-08-02T04:59:09.044Z,6.03
2022-08-02T05:01:54.537Z,5.75
2022-08-02T05:04:40.158Z,5.82
2022-08-02T05:07:25.888Z,5.53
2022-08-02T05:10:11.686Z,5.18
2022-08-02T05:12:57.112Z,5.53
2022-08-02T05:15:42.844Z,5.20
2022-08-02T05:18:28.672Z,4.85
2022-08-02T05:21:14.291Z,4.32
2022-08-02T05:24:00.876Z,4.03
2022-08-02T05:26:46.443Z,4.55
2022-08-02T05:29:32.082Z,5.00
2022-08-02T05:32:18.606Z,4.70
2022-08-02T05:35:04.157Z,4.90
2022-08-02T05:37:51.107Z,4.35
2022-08-02T05:40:36.554Z,3.88
2022-08-02T05:43:39.858Z,5.15
2022-08-02T05:46:25.362Z,4.40
2022-08-02T05:49:11.010Z,4.25
2022-08-02T05:52:07.612Z,3.78
2022-08-02T05:55:07.395Z,4.40
2022-08-02T05:58:18.274Z,4.60
2022-08-02T06:01:04.560Z,4.95
2022-08-02T06:03:56.502Z,5.40
2022-08-02T06:06:44.814Z,5.03
2022-08-02T06:09:31.059Z,5.10
2022-08-02T06:12:18.282Z,4.80
2022-08-02T06:15:05.003Z,5.10
2022-08-02T06:17:52.695Z,5.55
2022-08-02T06:20:38.014Z,5.70
2022-08-02T06:23:23.606Z,5.50
2022-08-02T06:26:13.880Z,5.40
2022-08-02T06:28:59.561Z,5.47
2022-08-02T06:31:45.600Z,5.40
2022-08-02T06:34:30.694Z,5.55
2022-08-02T06:37:36.100Z,5.88
2022-08-02T06:40:35.948Z,5.72
2022-08-02T06:43:40.019Z,5.57
2022-08-02T06:47:07.409Z,6.00
2022-08-02T06:49:52.738Z,5.63
2022-08-02T06:52:37.030Z,6.07
2022-08-02T06:55:22.422Z,5.22
2022-08-02T06:58:07.992Z,4.05
2022-08-02T07:00:53.488Z,5.22
2022-08-02T07:03:40.382Z,4.70
2022-08-02T07:06:25.745Z,4.82
2022-08-02T07:09:20.714Z,4.60
2022-08-02T07:12:06.914Z,3.78
2022-08-02T07:14:53.071Z,4.20
2022-08-02T07:17:38.857Z,5.03
2022-08-02T07:20:24.524Z,4.35
2022-08-02T07:23:13.410Z,5.28
2022-08-02T07:26:03.714Z,5.32
2022-08-02T07:28:50.658Z,4.22
2022-08-02T07:31:37.287Z,4.45
2022-08-02T07:34:23.382Z,5.30
2022-08-02T07:37:09.828Z,4.30
2022-08-02T07:40:13.441Z,4.25
2022-08-02T07:43:03.882Z,3.92
2022-08-02T07:45:57.130Z,3.80
2022-08-02T07:48:54.674Z,3.25
2022-08-02T07:51:40.524Z,4.10
2022-08-02T07:54:26.311Z,4.38
2022-08-02T07:57:11.563Z,4.45
2022-08-02T07:59:57.055Z,3.35
2022-08-02T08:02:45.163Z,5.38
2022-08-02T08:05:31.041Z,2.97
2022-08-02T08:08:17.716Z,3.10
2022-08-02T08:11:03.911Z,3.53
2022-08-02T08:13:53.148Z,3.10
2022-08-02T08:16:38.822Z,3.10
2022-08-02T08:19:50.247Z,3.03
2022-08-02T08:22:30.588Z,2.92
2022-08-02T08:25:16.921Z,3.17
2022-08-02T08:28:02.186Z,2.55
2022-08-02T08:30:47.893Z,2.85
2022-08-02T08:33:33.880Z,3.13
2022-08-02T08:36:21.411Z,2.80
2022-08-02T08:39:06.943Z,3.08
2022-08-02T08:41:52.325Z,3.00
2022-08-02T08:44:38.317Z,3.15
2022-08-02T08:47:27.031Z,2.90
2022-08-02T08:50:25.511Z,3.03
2022-08-02T08:53:13.916Z,2.37
2022-08-02T08:56:00.573Z,2.85
2022-08-02T08:58:48.502Z,2.70
2022-08-02T09:01:50.445Z,2.20
2022-08-02T09:04:36.921Z,2.42
2022-08-02T09:07:25.434Z,2.50
2022-08-02T09:10:47.290Z,2.58
2022-08-02T09:13:45.499Z,2.60
2022-08-02T09:16:43.365Z,2.25
2022-08-02T09:19:29.674Z,2.75
2022-08-02T09:22:16.617Z,2.58
2022-08-02T09:25:02.690Z,2.30
2022-08-02T09:27:49.060Z,1.67
2022-08-02T09:30:43.157Z,2.13
2022-08-02T09:33:29.093Z,5.47
2022-08-02T09:36:16.934Z,2.72
2022-08-02T09:39:06.296Z,2.45
2022-08-02T09:41:51.894Z,2.80
2022-08-02T09:44:38.135Z,3.15
2022-08-02T09:47:28.201Z,3.20
2022-08-02T09:50:17.895Z,2.90
2022-08-02T09:53:04.123Z,5.03
2022-08-02T09:55:59.925Z,2.92
2022-08-02T09:58:45.983Z,3.42
2022-08-02T10:01:37.456Z,3.42
2022-08-02T10:07:11.401Z,3.22
2022-08-02T10:09:57.861Z,3.28
2022-08-02T10:12:43.075Z,3.38
2022-08-02T10:15:28.766Z,3.10
2022-08-02T10:18:37.105Z,4.10
2022-08-02T10:21:52.699Z,2.90
2022-08-02T10:24:39.794Z,2.70
2022-08-02T10:28:02.507Z,2.67
2022-08-02T10:30:43.833Z,2.67
2022-08-02T10:33:31.084Z,3.20
2022-08-02T10:36:18.134Z,3.15
2022-08-02T10:39:03.974Z,2.97
2022-08-02T10:41:51.894Z,3.13
2022-08-02T10:44:38.035Z,2.50
2022-08-02T10:47:24.368Z,3.30
2022-08-02T10:50:10.250Z,2.35
2022-08-02T10:53:34.227Z,3.15
2022-08-02T10:56:45.744Z,2.63
2022-08-02T10:59:37.508Z,1.95
2022-08-02T11:02:38.715Z,2.17
2022-08-02T11:05:42.854Z,2.92
2022-08-02T11:08:29.918Z,3.35
2022-08-02T11:11:18.647Z,2.50
2022-08-02T11:14:08.809Z,2.30
2022-08-02T11:16:57.347Z,2.22
2022-08-02T11:20:12.054Z,1.80
2022-08-02T11:23:44.698Z,1.80
2022-08-02T11:26:31.701Z,1.45
2022-08-02T11:29:17.420Z,1.60
2022-08-02T11:32:03.171Z,1.35
2022-08-02T11:34:54.244Z,1.35
2022-08-02T11:37:44.848Z,0.90
2022-08-02T11:40:38.619Z,1.15
2022-08-02T11:43:30.793Z,1.33
2022-08-02T11:46:16.739Z,1.15
2022-08-02T11:49:18.414Z,1.40
2022-08-02T11:52:06.855Z,1.13
2022-08-02T11:54:52.322Z,1.25
2022-08-02T11:58:03.870Z,1.65
2022-08-02T12:00:47.307Z,1.73
2022-08-02T12:03:40.049Z,1.30
2022-08-02T12:06:29.309Z,1.30
2022-08-02T12:09:18.629Z,1.38
2022-08-02T12:12:05.645Z,1.40
2022-08-02T12:14:52.358Z,1.48
2022-08-02T12:17:57.123Z,1.33
2022-08-02T12:20:43.228Z,1.35
2022-08-02T12:23:28.823Z,1.38
2022-08-02T12:26:15.952Z,1.10
2022-08-02T12:29:01.769Z,1.40
2022-08-02T12:31:56.280Z,1.17
2022-08-02T12:34:43.315Z,1.80
2022-08-02T12:37:29.006Z,1.30
2022-08-02T12:40:32.705Z,1.52
2022-08-02T12:43:21.260Z,1.42
2022-08-02T12:46:17.655Z,1.48
2022-08-02T12:49:19.150Z,1.50
2022-08-02T12:52:23.109Z,1.80
2022-08-02T12:55:24.404Z,1.50
2022-08-02T12:58:10.193Z,1.52
2022-08-02T13:01:01.368Z,1.65
2022-08-02T13:04:10.373Z,1.40
2022-08-02T13:06:53.279Z,1.60
2022-08-02T13:09:47.607Z,1.90
2022-08-02T13:12:37.486Z,1.50
2022-08-02T13:15:49.126Z,1.50
2022-08-02T13:18:36.703Z,1.40
2022-08-02T13:21:40.040Z,3.08
2022-08-02T13:24:38.888Z,1.98
2022-08-02T13:27:32.333Z,3.22
2022-08-02T13:30:18.398Z,1.70
2022-08-02T13:33:03.795Z,1.58
2022-08-02T13:35:50.317Z,1.75
2022-08-02T13:38:35.576Z,1.13
2022-08-02T13:41:21.337Z,1.23
2022-08-02T13:44:10.458Z,1.13
2022-08-02T13:46:56.597Z,1.17
2022-08-02T13:49:50.507Z,1.30
2022-08-02T13:52:37.719Z,1.30
2022-08-02T13:55:23.263Z,1.30
2022-08-02T13:58:09.130Z,1.13
2022-08-02T14:00:54.542Z,1.02
2022-08-02T14:04:05.896Z,1.13
2022-08-02T14:06:45.338Z,1.48
2022-08-02T14:09:35.727Z,2.28
2022-08-02T14:12:21.536Z,1.35
2022-08-02T14:15:07.642Z,1.40
2022-08-02T14:17:53.180Z,1.80
2022-08-02T14:20:38.711Z,1.55
2022-08-02T14:23:49.895Z,1.50
2022-08-02T14:26:30.250Z,1.88
2022-08-02T14:29:16.182Z,1.77
2022-08-02T14:32:02.437Z,1.88
2022-08-02T14:34:48.000Z,1.55
2022-08-02T14:37:34.802Z,1.80
2022-08-02T14:40:30.654Z,2.10
2022-08-02T14:43:36.229Z,1.80
2022-08-02T14:46:21.843Z,2.25
2022-08-02T14:49:09.672Z,2.00
2022-08-02T14:51:55.477Z,1.92
2022-08-02T14:54:43.123Z,2.30
2022-08-02T14:57:28.335Z,2.28
2022-08-02T15:00:14.554Z,2.90
2022-08-02T15:02:59.773Z,2.15
2022-08-02T15:05:45.347Z,2.03
2022-08-02T15:08:42.175Z,3.13
2022-08-02T15:11:28.365Z,2.55
2022-08-02T15:14:15.294Z,1.98
2022-08-02T15:17:08.036Z,2.25
2022-08-02T15:22:46.762Z,2.13
2022-08-02T15:25:41.092Z,1.80
2022-08-02T15:28:29.670Z,2.08
2022-08-02T15:31:22.353Z,1.90
2022-08-02T15:34:18.816Z,2.17
2022-08-02T15:37:08.640Z,2.30
2022-08-02T15:39:54.330Z,1.88
2022-08-02T15:42:40.007Z,2.05
2022-08-02T15:45:28.624Z,1.60
2022-08-02T15:48:14.079Z,1.95
2022-08-02T15:50:59.397Z,1.80
2022-08-02T15:53:54.501Z,1.65
2022-08-02T15:56:40.441Z,2.00
2022-08-02T15:59:25.706Z,2.22
2022-08-02T16:02:11.622Z,2.35
2022-08-02T16:04:57.323Z,2.42
2022-08-02T16:07:45.830Z,2.33
2022-08-02T16:10:32.783Z,1.77
2022-08-02T16:13:53.520Z,2.08
2022-08-02T16:16:42.626Z,2.10
2022-08-02T16:19:46.037Z,2.10
2022-08-02T16:22:33.717Z,2.47
2022-08-02T16:25:19.920Z,1.88
2022-08-02T16:28:07.673Z,1.95
2022-08-02T16:31:09.971Z,1.80
2022-08-02T16:33:57.210Z,2.25
2022-08-02T16:36:43.360Z,2.08
2022-08-02T16:39:33.055Z,2.05
2022-08-02T16:42:24.957Z,2.67
2022-08-02T16:45:11.410Z,2.28
2022-08-02T16:48:03.842Z,1.92
2022-08-02T16:50:57.920Z,2.10
2022-08-02T16:54:00.623Z,2.15
2022-08-02T16:56:48.014Z,1.70
2022-08-02T16:59:42.843Z,2.88
2022-08-02T17:02:29.456Z,2.40
2022-08-02T17:05:15.535Z,2.10
2022-08-02T17:08:15.183Z,2.35
2022-08-02T17:11:04.080Z,2.63
2022-08-02T17:13:49.948Z,2.33
2022-08-02T17:16:35.944Z,2.05
2022-08-02T17:19:21.961Z,2.22
2022-08-02T17:22:07.690Z,2.00
2022-08-02T17:24:56.417Z,2.78
2022-08-02T17:27:44.918Z,2.08
2022-08-02T17:30:30.613Z,2.35
2022-08-02T17:33:17.175Z,2.22
2022-08-02T17:36:02.981Z,3.20
2022-08-02T17:38:50.154Z,2.40
2022-08-02T17:41:49.314Z,2.75
2022-08-02T17:44:38.373Z,2.25
2022-08-02T17:47:30.834Z,2.45
2022-08-02T17:50:23.714Z,2.67
2022-08-02T17:53:09.778Z,3.15
2022-08-02T17:55:55.597Z,2.35
2022-08-02T17:58:51.841Z,3.42
2022-08-02T18:01:49.191Z,2.65
2022-08-02T18:04:39.198Z,2.65
2022-08-02T18:07:25.524Z,3.00
2022-08-02T18:10:28.688Z,2.85
2022-08-02T18:13:14.163Z,2.70
2022-08-02T18:16:00.839Z,3.33
2022-08-02T18:18:46.694Z,2.50
2022-08-02T18:21:35.613Z,3.97
2022-08-02T18:24:24.148Z,2.60
2022-08-02T18:27:09.966Z,2.70
2022-08-02T18:30:04.380Z,3.58
2022-08-02T18:33:59.320Z,3.03
2022-08-02T18:35:56.273Z,3.42
2022-08-02T18:41:48.341Z,2.90
2022-08-02T18:44:35.956Z,3.65
2022-08-02T18:47:22.729Z,2.88
2022-08-02T18:50:09.062Z,3.28
2022-08-02T18:52:54.635Z,3.83
2022-08-02T18:56:03.311Z,2.75
2022-08-02T18:58:49.031Z,3.95
2022-08-02T19:01:39.553Z,3.63
2022-08-02T19:04:31.966Z,3.50
2022-08-02T19:07:18.653Z,2.47
2022-08-02T19:10:08.731Z,3.88
2022-08-02T19:12:54.558Z,2.83
2022-08-02T19:15:40.899Z,4.25
2022-08-02T19:18:30.070Z,4.03
2022-08-02T19:21:15.867Z,3.40
2022-08-02T19:24:01.433Z,3.80
2022-08-02T19:26:52.454Z,4.20
2022-08-02T19:29:42.720Z,2.80
2022-08-02T19:32:42.008Z,3.15
2022-08-02T19:36:02.009Z,2.83
2022-08-02T19:38:49.098Z,3.30
2022-08-02T19:41:44.031Z,3.15
2022-08-02T19:44:32.759Z,3.63
2022-08-02T19:47:19.647Z,3.47
2022-08-02T19:50:05.726Z,3.58
2022-08-02T19:52:55.420Z,2.92
2022-08-02T19:56:00.943Z,3.92
2022-08-02T19:58:47.120Z,4.25
2022-08-02T20:01:38.319Z,4.35
2022-08-02T20:07:11.691Z,3.90
2022-08-02T20:10:10.796Z,3.42
2022-08-02T20:12:57.004Z,3.35
2022-08-02T20:15:55.929Z,4.28
2022-08-02T20:18:42.105Z,3.50
2022-08-02T20:21:36.084Z,3.70
2022-08-02T20:24:26.490Z,3.05
2022-08-02T20:27:16.577Z,3.28
2022-08-02T20:30:03.010Z,3.80
2022-08-02T20:32:52.731Z,4.18
2022-08-02T20:35:42.988Z,3.90
2022-08-02T20:38:32.088Z,3.85
2022-08-02T20:41:21.387Z,3.85
2022-08-02T20:44:15.744Z,4.03
2022-08-02T20:47:13.319Z,3.78
2022-08-02T20:50:17.178Z,3.53
2022-08-02T20:53:05.145Z,3.65
2022-08-02T20:55:53.524Z,3.83
2022-08-02T20:58:39.773Z,3.65
2022-08-02T21:01:25.272Z,4.20
2022-08-02T21:04:25.827Z,4.65
2022-08-02T21:07:12.901Z,3.58
2022-08-02T21:09:59.107Z,3.40
2022-08-02T21:12:45.595Z,3.53
2022-08-02T21:15:32.136Z,3.53
2022-08-02T21:18:33.177Z,3.42
2022-08-02T21:21:26.787Z,3.80
2022-08-02T21:24:13.494Z,4.00
2022-08-02T21:27:00.115Z,3.63
2022-08-02T21:29:46.142Z,4.68
2022-08-02T21:32:31.854Z,3.45
2022-08-02T21:35:18.030Z,4.22
2022-08-02T21:38:03.291Z,3.15
2022-08-02T21:40:48.853Z,4.07
2022-08-02T21:43:38.490Z,3.58
2022-08-02T21:46:25.074Z,3.83
2022-08-02T21:49:17.130Z,3.17
2022-08-02T21:52:03.337Z,3.00
2022-08-02T21:54:49.374Z,3.72
2022-08-02T21:57:35.094Z,3.63
2022-08-02T22:00:28.553Z,3.85
2022-08-02T22:03:23.153Z,3.63
2022-08-02T22:06:09.634Z,4.32
2022-08-02T22:08:55.660Z,3.53
2022-08-02T22:11:41.499Z,3.95
2022-08-02T22:14:28.980Z,3.53
2022-08-02T22:17:14.791Z,3.90
2022-08-02T22:20:00.288Z,4.20
2022-08-02T22:22:46.018Z,4.03
2022-08-02T22:28:50.981Z,3.67
2022-08-02T22:31:40.864Z,3.50
2022-08-02T22:34:51.854Z,3.60
2022-08-02T22:38:14.580Z,4.50
2022-08-02T22:40:44.419Z,4.65
2022-08-02T22:43:31.420Z,4.57
2022-08-02T22:46:19.708Z,4.55
2022-08-02T22:49:36.128Z,3.55
2022-08-02T22:52:20.083Z,4.03
2022-08-02T22:55:07.031Z,3.20
2022-08-02T22:57:57.150Z,3.97
2022-08-02T22:58:45.113Z,3.03
2022-08-02T22:59:04.824Z,3.40
2022-08-02T23:00:43.159Z,4.22
2022-08-02T23:03:29.053Z,4.28
2022-08-02T23:06:17.569Z,4.15
2022-08-02T23:09:03.102Z,4.13
2022-08-02T23:11:49.068Z,4.10
2022-08-02T23:14:34.614Z,4.30
2022-08-02T23:17:39.076Z,5.43
2022-08-02T23:20:25.217Z,3.83
2022-08-02T23:23:11.515Z,4.53
2022-08-02T23:25:57.824Z,3.60
2022-08-02T23:28:43.464Z,3.92
2022-08-02T23:31:38.120Z,3.63
2022-08-02T23:34:24.111Z,4.38
2022-08-02T23:37:10.104Z,5.18
2022-08-02T23:39:56.170Z,3.70
2022-08-02T23:42:41.416Z,4.32
2022-08-02T23:45:27.268Z,4.35
2022-08-02T23:48:23.543Z,3.78
2022-08-02T23:51:09.421Z,4.75
2022-08-02T23:54:01.201Z,3.92
2022-08-02T23:56:47.221Z,5.40
2022-08-02T23:59:33.153Z,5.00
